Time;durP1;ratioP1;P1;durP2;ratioP2;P2;SDS_P1;SDS_P2;PMS_P1;PMS_P2;Temp;Humidity;BMP_temperature;BMP_pressure;BME280_temperature;BME280_humidity;BME280_pressure;Samples;Min_cycle;Max_cycle;Signal;HPM_P1;HPM_P2
2023/02/14 00:01:20;;;;;;;;;76.75;60.00;;;;;-147.17;100.00;-15917.19;5014997;28;51231;-59
2023/02/14 00:03:46;;;;;;;;;76.50;61.00;;;;;-147.17;100.00;-15917.19;5016481;28;51122;-59
2023/02/14 00:06:12;;;;;;;;;80.50;62.25;;;;;-147.17;100.00;-15917.19;5017303;28;51672;-59
2023/02/14 00:08:39;;;;;;;;;78.25;63.00;;;;;-147.17;100.00;-15917.19;5021424;28;51023;-58
2023/02/14 00:11:07;;;;;;;;;76.50;60.75;;;;;-147.17;100.00;-15917.19;5019080;28;51240;-57
2023/02/14 00:13:33;;;;;;;;;80.25;63.75;;;;;-147.17;100.00;-15917.19;5017818;28;51171;-58
2023/02/14 00:15:58;;;;;;;;;79.00;62.75;;;;;-147.17;100.00;-15917.19;5019637;28;51228;-58
2023/02/14 00:19:02;;;;;;;;;77.75;60.50;;;;;-147.17;100.00;-15917.19;5009842;28;51201;-57
2023/02/14 00:21:09;;;;;;;;;79.00;61.00;;;;;-147.17;100.00;-15917.19;5025074;28;51058;-57
2023/02/14 00:23:34;;;;;;;;;83.00;64.50;;;;;-147.17;100.00;-15917.19;5006808;28;51448;-57
2023/02/14 00:25:59;;;;;;;;;77.25;61.25;;;;;-147.17;100.00;-15917.19;4990384;28;51908;-57
2023/02/14 00:28:25;;;;;;;;;80.00;64.50;;;;;-147.17;100.00;-15917.19;5025131;28;51302;-61
2023/02/14 00:30:50;;;;;;;;;80.50;62.75;;;;;-147.17;100.00;-15917.19;5000076;28;51757;-58
2023/02/14 00:33:15;;;;;;;;;78.75;62.50;;;;;-147.17;100.00;-15917.19;5025830;28;51186;-57
2023/02/14 00:35:41;;;;;;;;;80.75;64.00;;;;;-147.17;100.00;-15917.19;5021546;28;52590;-58
2023/02/14 00:38:06;;;;;;;;;80.25;63.00;;;;;-147.17;100.00;-15917.19;5023107;28;50977;-58
2023/02/14 00:40:31;;;;;;;;;82.50;63.50;;;;;-147.17;100.00;-15917.19;5005805;28;51070;-58
2023/02/14 00:42:57;;;;;;;;;79.25;62.00;;;;;-147.17;100.00;-15917.19;5019634;28;51166;-57
2023/02/14 00:45:22;;;;;;;;;79.00;61.50;;;;;-147.17;100.00;-15917.19;5022717;28;52057;-58
2023/02/14 00:47:47;;;;;;;;;78.75;61.00;;;;;-147.17;100.00;-15917.19;5023676;28;51197;-59
2023/02/14 00:50:13;;;;;;;;;78.25;62.75;;;;;-147.17;100.00;-15917.19;5024076;28;51532;-58
2023/02/14 00:52:38;;;;;;;;;80.00;64.75;;;;;-147.17;100.00;-15917.19;5026023;28;51370;-58
2023/02/14 00:55:03;;;;;;;;;79.25;63.00;;;;;-147.17;100.00;-15917.19;5020008;28;51824;-58
2023/02/14 00:57:29;;;;;;;;;76.50;59.50;;;;;-147.17;100.00;-15917.19;5003611;28;51096;-58
2023/02/14 00:59:54;;;;;;;;;80.75;62.50;;;;;-147.17;100.00;-15917.19;5026529;28;51512;-58
2023/02/14 01:02:19;;;;;;;;;80.25;62.25;;;;;-147.17;100.00;-15917.19;5006615;28;51047;-58
2023/02/14 01:04:45;;;;;;;;;78.75;61.00;;;;;-147.17;100.00;-15917.19;5023880;28;51984;-57
2023/02/14 01:07:10;;;;;;;;;78.00;62.75;;;;;-147.17;100.00;-15917.19;5018729;28;51672;-58
2023/02/14 01:09:36;;;;;;;;;82.75;64.00;;;;;-147.17;100.00;-15917.19;5024262;28;51376;-57
2023/02/14 01:12:01;;;;;;;;;79.00;63.50;;;;;-147.17;100.00;-15917.19;5002177;28;51358;-58
2023/02/14 01:14:27;;;;;;;;;82.25;61.00;;;;;-147.17;100.00;-15917.19;5016307;28;51259;-57
2023/02/14 01:16:52;;;;;;;;;78.00;62.00;;;;;-147.17;100.00;-15917.19;5015841;28;51435;-58
2023/02/14 01:19:17;;;;;;;;;76.00;59.50;;;;;-147.17;100.00;-15917.19;5019518;28;51184;-57
2023/02/14 01:21:43;;;;;;;;;78.75;61.50;;;;;-147.17;100.00;-15917.19;5023889;28;51423;-57
2023/02/14 01:24:10;;;;;;;;;76.75;61.75;;;;;-147.17;100.00;-15917.19;5020355;28;52167;-58
2023/02/14 01:26:36;;;;;;;;;76.75;61.00;;;;;-147.17;100.00;-15917.19;5018512;28;51158;-58
2023/02/14 01:29:04;;;;;;;;;74.50;57.00;;;;;-147.17;100.00;-15917.19;5020658;28;51264;-59
2023/02/14 01:31:31;;;;;;;;;77.25;60.50;;;;;-147.17;100.00;-15917.19;5022067;28;51164;-57
2023/02/14 01:33:57;;;;;;;;;75.00;60.75;;;;;-147.17;100.00;-15917.19;5017413;28;51925;-57
2023/02/14 01:36:24;;;;;;;;;75.75;58.25;;;;;-147.17;100.00;-15917.19;5020154;28;51297;-58
2023/02/14 01:38:55;;;;;;;;;75.50;61.75;;;;;-147.17;100.00;-15917.19;5016738;28;52488;-58
2023/02/14 01:41:22;;;;;;;;;77.25;60.50;;;;;-147.17;100.00;-15917.19;5021520;28;51777;-57
2023/02/14 01:43:55;;;;;;;;;79.25;62.50;;;;;-147.17;100.00;-15917.19;5016357;28;52112;-57
2023/02/14 01:46:21;;;;;;;;;75.50;60.50;;;;;-147.17;100.00;-15917.19;5023714;28;51069;-57
2023/02/14 01:48:48;;;;;;;;;77.75;63.25;;;;;-147.17;100.00;-15917.19;5018644;28;51456;-57
2023/02/14 01:51:15;;;;;;;;;65.00;50.00;;;;;-147.17;100.00;-15917.19;5014264;28;51099;-57
2023/02/14 01:53:41;;;;;;;;;79.50;63.00;;;;;-147.17;100.00;-15917.19;5020813;28;51751;-57
2023/02/14 01:56:12;;;;;;;;;78.75;61.75;;;;;-147.17;100.00;-15917.19;5018124;28;50902;-57
2023/02/14 01:58:43;;;;;;;;;87.25;69.50;;;;;-147.17;100.00;-15917.19;5014453;28;51222;-59
2023/02/14 02:01:12;;;;;;;;;82.00;64.00;;;;;-147.17;100.00;-15917.19;5013196;28;51131;-57
2023/02/14 02:03:45;;;;;;;;;83.50;68.50;;;;;-147.17;100.00;-15917.19;5018721;28;52244;-57
2023/02/14 02:06:19;;;;;;;;;80.25;63.75;;;;;-147.17;100.00;-15917.19;5017483;28;51215;-57
2023/02/14 02:08:57;;;;;;;;;85.50;67.00;;;;;-147.17;100.00;-15917.19;5020859;28;51125;-56
2023/02/14 02:11:23;;;;;;;;;84.50;64.50;;;;;-147.17;100.00;-15917.19;5015436;28;51177;-56
2023/02/14 02:13:48;;;;;;;;;75.75;57.75;;;;;-147.17;100.00;-15917.19;4989759;28;51223;-57
2023/02/14 02:16:32;;;;;;;;;75.00;61.25;;;;;-147.17;100.00;-15917.19;5016498;28;51121;-59
2023/02/14 02:19:27;;;;;;;;;76.00;61.25;;;;;-147.17;100.00;-15917.19;5000636;28;51465;-57
2023/02/14 02:21:55;;;;;;;;;78.50;62.50;;;;;-147.17;100.00;-15917.19;5005463;28;52432;-56
2023/02/14 02:24:39;;;;;;;;;83.75;67.25;;;;;-147.17;100.00;-15917.19;5017585;28;51462;-57
2023/02/14 02:27:25;;;;;;;;;84.00;68.00;;;;;-147.17;100.00;-15917.19;5018039;28;51157;-58
2023/02/14 02:30:31;;;;;;;;;84.25;64.25;;;;;-147.17;100.00;-15917.19;5022349;28;51119;-58
2023/02/14 02:33:45;;;;;;;;;83.75;65.75;;;;;-147.17;100.00;-15917.19;4941894;28;51047;-56
2023/02/14 02:36:10;;;;;;;;;83.50;65.25;;;;;-147.17;100.00;-15917.19;4928809;28;52425;-57
2023/02/14 02:38:53;;;;;;;;;85.50;66.75;;;;;-147.17;100.00;-15917.19;4999575;28;51347;-58
2023/02/14 02:41:36;;;;;;;;;84.25;67.25;;;;;-147.17;100.00;-15917.19;5015958;28;51248;-59
2023/02/14 02:44:17;;;;;;;;;82.50;66.75;;;;;-147.17;100.00;-15917.19;5016030;28;51405;-58
2023/02/14 02:46:59;;;;;;;;;84.50;64.75;;;;;-147.17;100.00;-15917.19;5016644;28;51885;-58
2023/02/14 02:53:06;;;;;;;;;83.50;66.00;;;;;-147.17;100.00;-15917.19;4986675;28;51183;-57
2023/02/14 02:58:52;;;;;;;;;84.25;63.75;;;;;-147.17;100.00;-15917.19;5022077;28;51874;-58
2023/02/14 03:01:30;;;;;;;;;82.75;66.25;;;;;-147.17;100.00;-15917.19;5015987;28;51303;-58
2023/02/14 03:06:47;;;;;;;;;81.50;64.50;;;;;-147.17;100.00;-15917.19;5023405;28;51353;-58
2023/02/14 03:09:34;;;;;;;;;84.25;67.00;;;;;-147.17;100.00;-15917.19;5011506;28;51187;-57
2023/02/14 03:12:32;;;;;;;;;78.67;61.33;;;;;-147.17;100.00;-15917.19;5007374;28;51212;-58
2023/02/14 03:15:26;;;;;;;;;83.00;64.25;;;;;-147.17;100.00;-15917.19;4964566;28;52934;-58
2023/02/14 03:17:54;;;;;;;;;84.50;66.50;;;;;-147.17;100.00;-15917.19;5017372;28;51126;-57
2023/02/14 03:20:22;;;;;;;;;87.50;67.25;;;;;-147.17;100.00;-15917.19;5019267;28;52336;-57
2023/02/14 03:22:49;;;;;;;;;82.75;65.25;;;;;-147.17;100.00;-15917.19;5018398;28;52311;-57
2023/02/14 03:25:20;;;;;;;;;84.75;68.50;;;;;-147.17;100.00;-15917.19;5021176;28;51585;-57
2023/02/14 03:27:53;;;;;;;;;89.75;68.75;;;;;-147.17;100.00;-15917.19;5020223;28;51296;-58
2023/02/14 03:30:18;;;;;;;;;84.25;64.75;;;;;-147.17;100.00;-15917.19;5003627;28;53453;-57
2023/02/14 03:32:54;;;;;;;;;82.75;63.50;;;;;-147.17;100.00;-15917.19;5012379;28;51125;-57
2023/02/14 03:35:27;;;;;;;;;82.75;66.75;;;;;-147.17;100.00;-15917.19;5017908;28;51391;-57
2023/02/14 03:37:59;;;;;;;;;82.50;66.25;;;;;-147.17;100.00;-15917.19;5015582;28;51364;-58
2023/02/14 03:40:30;;;;;;;;;76.33;62.33;;;;;-147.17;100.00;-15917.19;5014385;28;51216;-57
2023/02/14 03:43:03;;;;;;;;;83.75;66.00;;;;;-147.17;100.00;-15917.19;5023393;28;51085;-57
2023/02/14 03:45:33;;;;;;;;;82.75;64.25;;;;;-147.17;100.00;-15917.19;5002364;28;51181;-58
2023/02/14 03:48:04;;;;;;;;;85.00;68.00;;;;;-147.17;100.00;-15917.19;5013260;28;51099;-58
2023/02/14 03:50:31;;;;;;;;;85.75;67.25;;;;;-147.17;100.00;-15917.19;5025670;28;52275;-58
2023/02/14 03:52:58;;;;;;;;;87.25;67.50;;;;;-147.17;100.00;-15917.19;5014130;28;51291;-58
2023/02/14 03:55:34;;;;;;;;;84.25;67.50;;;;;-147.17;100.00;-15917.19;5000975;28;51109;-57
2023/02/14 03:58:09;;;;;;;;;84.50;68.25;;;;;-147.17;100.00;-15917.19;4997570;28;51452;-56
2023/02/14 04:00:39;;;;;;;;;77.75;62.25;;;;;-147.17;100.00;-15917.19;5012685;28;51769;-57
2023/02/14 04:03:12;;;;;;;;;84.50;64.75;;;;;-147.17;100.00;-15917.19;5012295;28;51378;-58
2023/02/14 04:05:42;;;;;;;;;88.00;65.75;;;;;-147.17;100.00;-15917.19;5017208;28;51450;-57
2023/02/14 04:08:08;;;;;;;;;82.75;67.25;;;;;-147.17;100.00;-15917.19;5019182;28;51244;-57
2023/02/14 04:10:33;;;;;;;;;84.00;68.00;;;;;-147.17;100.00;-15917.19;5022094;28;51221;-58
2023/02/14 04:12:59;;;;;;;;;82.75;65.75;;;;;-147.17;100.00;-15917.19;5023586;28;51256;-56
2023/02/14 04:15:24;;;;;;;;;86.50;69.00;;;;;-147.17;100.00;-15917.19;5022368;28;51309;-57
2023/02/14 04:20:34;;;;;;;;;83.00;64.25;;;;;-147.17;100.00;-15917.19;5018459;28;51165;-58
2023/02/14 04:22:59;;;;;;;;;80.50;63.00;;;;;-147.17;100.00;-15917.19;5021389;28;51026;-57
2023/02/14 04:25:25;;;;;;;;;84.75;66.25;;;;;-147.17;100.00;-15917.19;5008660;28;51072;-57
2023/02/14 04:27:50;;;;;;;;;84.50;68.00;;;;;-147.17;100.00;-15917.19;5018621;28;51923;-58
2023/02/14 04:30:20;;;;;;;;;84.25;66.25;;;;;-147.17;100.00;-15917.19;5017913;28;51125;-57
2023/02/14 04:32:46;;;;;;;;;84.75;66.25;;;;;-147.17;100.00;-15917.19;5019395;28;51471;-56
2023/02/14 04:35:11;;;;;;;;;83.25;67.75;;;;;-147.17;100.00;-15917.19;5020005;28;51197;-59
2023/02/14 04:37:37;;;;;;;;;82.25;63.50;;;;;-147.17;100.00;-15917.19;5021611;28;51246;-57
2023/02/14 04:40:02;;;;;;;;;84.25;65.75;;;;;-147.17;100.00;-15917.19;5014635;28;52411;-57
2023/02/14 04:42:28;;;;;;;;;82.25;64.75;;;;;-147.17;100.00;-15917.19;5021008;28;51185;-56
2023/02/14 04:44:53;;;;;;;;;78.75;62.75;;;;;-147.17;100.00;-15917.19;5018053;28;51204;-57
2023/02/14 04:47:19;;;;;;;;;79.75;62.75;;;;;-147.17;100.00;-15917.19;5022362;28;51202;-57
2023/02/14 04:49:44;;;;;;;;;78.00;62.25;;;;;-147.17;100.00;-15917.19;5019525;28;52324;-56
2023/02/14 04:52:09;;;;;;;;;86.00;64.75;;;;;-147.17;100.00;-15917.19;5019403;28;50896;-57
2023/02/14 04:54:35;;;;;;;;;81.00;64.50;;;;;-147.17;100.00;-15917.19;5018042;28;51331;-57
2023/02/14 04:57:00;;;;;;;;;82.25;65.50;;;;;-147.17;100.00;-15917.19;5020895;28;51428;-56
2023/02/14 04:59:26;;;;;;;;;80.75;64.00;;;;;-147.17;100.00;-15917.19;5021302;28;51173;-56
2023/02/14 05:01:52;;;;;;;;;80.50;62.25;;;;;-147.17;100.00;-15917.19;5019024;28;51097;-56
2023/02/14 05:04:17;;;;;;;;;84.00;66.25;;;;;-147.17;100.00;-15917.19;5017179;28;51026;-58
2023/02/14 05:06:43;;;;;;;;;81.75;65.00;;;;;-147.17;100.00;-15917.19;5024151;28;51333;-58
2023/02/14 05:09:08;;;;;;;;;80.00;62.50;;;;;-147.17;100.00;-15917.19;5025024;28;51710;-58
2023/02/14 05:11:34;;;;;;;;;90.00;69.75;;;;;-147.17;100.00;-15917.19;5012673;28;51249;-58
2023/02/14 05:13:59;;;;;;;;;84.25;64.00;;;;;-147.17;100.00;-15917.19;5024388;28;51411;-57
2023/02/14 05:16:25;;;;;;;;;84.25;67.50;;;;;-147.17;100.00;-15917.19;5021262;28;51288;-57
2023/02/14 05:18:50;;;;;;;;;83.75;66.25;;;;;-147.17;100.00;-15917.19;5012529;28;52405;-57
2023/02/14 05:21:16;;;;;;;;;80.25;63.75;;;;;-147.17;100.00;-15917.19;5026668;28;51362;-59
2023/02/14 05:23:42;;;;;;;;;82.00;65.75;;;;;-147.17;100.00;-15917.19;5024270;28;51126;-57
2023/02/14 05:26:07;;;;;;;;;82.25;63.50;;;;;-147.17;100.00;-15917.19;5022190;28;51213;-57
2023/02/14 05:28:33;;;;;;;;;81.75;64.75;;;;;-147.17;100.00;-15917.19;5020060;28;53566;-58
2023/02/14 05:30:58;;;;;;;;;81.75;64.50;;;;;-147.17;100.00;-15917.19;5018031;28;51180;-57
2023/02/14 05:33:24;;;;;;;;;82.50;64.25;;;;;-147.17;100.00;-15917.19;5020890;28;51218;-58
2023/02/14 05:35:50;;;;;;;;;84.00;68.25;;;;;-147.17;100.00;-15917.19;5017949;28;51031;-58
2023/02/14 05:38:16;;;;;;;;;90.50;68.00;;;;;-147.17;100.00;-15917.19;5012960;28;51110;-58
2023/02/14 05:40:42;;;;;;;;;80.25;63.25;;;;;-147.17;100.00;-15917.19;5028919;28;51315;-58
2023/02/14 05:43:07;;;;;;;;;81.25;63.50;;;;;-147.17;100.00;-15917.19;5021255;28;51808;-58
2023/02/14 05:45:33;;;;;;;;;84.50;66.25;;;;;-147.17;100.00;-15917.19;5025575;28;51132;-59
2023/02/14 05:47:58;;;;;;;;;84.00;64.75;;;;;-147.17;100.00;-15917.19;5016020;28;51220;-58
2023/02/14 05:50:24;;;;;;;;;84.25;65.50;;;;;-147.17;100.00;-15917.19;5020624;28;51500;-58
2023/02/14 05:52:49;;;;;;;;;85.00;66.00;;;;;-147.17;100.00;-15917.19;5006779;28;51153;-58
2023/02/14 05:55:15;;;;;;;;;75.25;61.50;;;;;-147.17;100.00;-15917.19;5018014;28;51640;-59
2023/02/14 05:57:41;;;;;;;;;82.00;64.75;;;;;-147.17;100.00;-15917.19;5024009;28;52134;-58
2023/02/14 06:00:07;;;;;;;;;83.50;64.00;;;;;-147.17;100.00;-15917.19;5022368;28;51137;-57
2023/02/14 06:02:33;;;;;;;;;82.75;65.75;;;;;-147.17;100.00;-15917.19;5025309;28;51278;-56
2023/02/14 06:04:58;;;;;;;;;83.50;66.50;;;;;-147.17;100.00;-15917.19;5018255;28;51085;-58
2023/02/14 06:07:23;;;;;;;;;87.25;71.00;;;;;-147.17;100.00;-15917.19;5027259;28;51195;-58
2023/02/14 06:09:49;;;;;;;;;85.75;66.00;;;;;-147.17;100.00;-15917.19;5024133;28;51116;-58
2023/02/14 06:12:14;;;;;;;;;80.75;63.50;;;;;-147.17;100.00;-15917.19;5022512;28;51787;-57
2023/02/14 06:14:41;;;;;;;;;88.75;70.75;;;;;-147.17;100.00;-15917.19;5024371;28;51422;-58
2023/02/14 06:17:07;;;;;;;;;83.25;65.50;;;;;-147.17;100.00;-15917.19;5019688;28;51955;-57
2023/02/14 06:19:33;;;;;;;;;85.75;64.50;;;;;-147.17;100.00;-15917.19;5024896;28;51501;-56
2023/02/14 06:21:58;;;;;;;;;88.67;72.33;;;;;-147.17;100.00;-15917.19;5025405;28;51619;-57
2023/02/14 06:24:23;;;;;;;;;86.50;68.00;;;;;-147.17;100.00;-15917.19;5021089;28;51330;-58
2023/02/14 06:26:49;;;;;;;;;88.67;72.00;;;;;-147.17;100.00;-15917.19;5006511;28;51482;-57
2023/02/14 06:29:16;;;;;;;;;86.75;71.25;;;;;-147.17;100.00;-15917.19;5019537;28;51162;-56
2023/02/14 06:31:41;;;;;;;;;87.33;70.33;;;;;-147.17;100.00;-15917.19;5019217;28;51245;-56
2023/02/14 06:34:07;;;;;;;;;88.25;69.75;;;;;-147.17;100.00;-15917.19;5027906;28;51479;-57
2023/02/14 06:36:32;;;;;;;;;86.75;70.75;;;;;-147.17;100.00;-15917.19;5014278;28;51344;-58
2023/02/14 06:38:58;;;;;;;;;81.00;63.75;;;;;-147.17;100.00;-15917.19;5021652;28;51110;-58
2023/02/14 06:41:23;;;;;;;;;90.25;69.50;;;;;-147.17;100.00;-15917.19;5020073;28;51628;-58
2023/02/14 06:43:49;;;;;;;;;87.75;73.25;;;;;-147.17;100.00;-15917.19;5017052;28;51669;-58
2023/02/14 06:46:16;;;;;;;;;84.33;66.00;;;;;-147.17;100.00;-15917.19;5024529;28;51072;-57
2023/02/14 06:48:41;;;;;;;;;89.00;66.75;;;;;-147.17;100.00;-15917.19;5019089;28;51212;-57
2023/02/14 06:51:07;;;;;;;;;89.00;71.75;;;;;-147.17;100.00;-15917.19;5001376;28;51533;-57
2023/02/14 06:53:32;;;;;;;;;85.25;67.75;;;;;-147.17;100.00;-15917.19;5021673;28;51621;-58
2023/02/14 06:55:58;;;;;;;;;88.00;67.33;;;;;-147.17;100.00;-15917.19;5016782;28;51191;-58
2023/02/14 06:58:23;;;;;;;;;88.00;68.50;;;;;-147.17;100.00;-15917.19;5020074;28;51066;-58
2023/02/14 07:00:49;;;;;;;;;86.50;70.25;;;;;-147.17;100.00;-15917.19;5013989;28;51565;-57
2023/02/14 07:03:14;;;;;;;;;82.00;65.00;;;;;-147.17;100.00;-15917.19;5014868;28;52219;-58
2023/02/14 07:05:40;;;;;;;;;88.00;71.33;;;;;-147.17;100.00;-15917.19;5019422;28;51605;-57
2023/02/14 07:08:06;;;;;;;;;88.00;67.00;;;;;-147.17;100.00;-15917.19;5016785;28;51210;-58
2023/02/14 07:10:33;;;;;;;;;88.50;73.50;;;;;-147.17;100.00;-15917.19;5001304;28;52842;-58
2023/02/14 07:12:59;;;;;;;;;88.00;70.33;;;;;-147.17;100.00;-15917.19;5023912;28;51085;-58
2023/02/14 07:15:25;;;;;;;;;90.33;68.00;;;;;-147.17;100.00;-15917.19;5000459;28;51886;-58
2023/02/14 07:17:50;;;;;;;;;91.00;75.33;;;;;-147.17;100.00;-15917.19;5012869;28;51181;-58
2023/02/14 07:20:17;;;;;;;;;89.67;73.00;;;;;-147.17;100.00;-15917.19;5016366;28;51090;-58
2023/02/14 07:22:43;;;;;;;;;90.33;74.33;;;;;-147.17;100.00;-15917.19;5019254;28;51344;-58
2023/02/14 07:25:09;;;;;;;;;93.00;75.00;;;;;-147.17;100.00;-15917.19;5014203;28;51278;-60
2023/02/14 07:27:38;;;;;;;;;92.67;75.00;;;;;-147.17;100.00;-15917.19;5018760;28;51197;-59
2023/02/14 07:30:05;;;;;;;;;88.67;68.33;;;;;-147.17;100.00;-15917.19;5015441;28;51136;-60
2023/02/14 07:32:30;;;;;;;;;88.00;71.67;;;;;-147.17;100.00;-15917.19;5017422;28;51666;-59
2023/02/14 07:34:56;;;;;;;;;86.33;69.33;;;;;-147.17;100.00;-15917.19;5020953;28;51086;-58
2023/02/14 07:37:21;;;;;;;;;88.00;72.00;;;;;-147.17;100.00;-15917.19;5019211;28;51226;-60
2023/02/14 07:39:47;;;;;;;;;80.33;64.00;;;;;-147.17;100.00;-15917.19;5002285;28;52473;-59
2023/02/14 07:42:12;;;;;;;;;87.00;72.00;;;;;-147.17;100.00;-15917.19;5014801;28;51240;-58
2023/02/14 07:44:38;;;;;;;;;89.00;70.50;;;;;-147.17;100.00;-15917.19;5017895;28;51149;-58
2023/02/14 07:47:08;;;;;;;;;86.33;68.00;;;;;-147.17;100.00;-15917.19;5016728;28;51193;-59
2023/02/14 07:49:34;;;;;;;;;85.00;68.33;;;;;-147.17;100.00;-15917.19;5022067;28;51331;-59
2023/02/14 07:51:59;;;;;;;;;85.25;68.00;;;;;-147.17;100.00;-15917.19;5016264;28;51086;-62
2023/02/14 07:54:25;;;;;;;;;91.33;71.00;;;;;-147.17;100.00;-15917.19;5022105;28;51153;-59
2023/02/14 07:56:50;;;;;;;;;84.50;66.75;;;;;-147.17;100.00;-15917.19;5020309;28;51197;-59
2023/02/14 07:59:16;;;;;;;;;85.00;65.25;;;;;-147.17;100.00;-15917.19;5013383;28;51428;-59
2023/02/14 08:01:42;;;;;;;;;80.33;64.33;;;;;-147.17;100.00;-15917.19;5010221;28;51212;-60
2023/02/14 08:04:08;;;;;;;;;87.25;68.75;;;;;-147.17;100.00;-15917.19;5003229;28;54167;-59
2023/02/14 08:06:33;;;;;;;;;78.00;61.00;;;;;-147.17;100.00;-15917.19;5017099;28;51381;-58
2023/02/14 08:08:59;;;;;;;;;81.00;65.50;;;;;-147.17;100.00;-15917.19;5020115;28;51583;-59
2023/02/14 08:14:08;;;;;;;;;84.50;65.25;;;;;-147.17;100.00;-15917.19;5014606;28;51489;-59
2023/02/14 08:16:34;;;;;;;;;88.67;76.33;;;;;-147.17;100.00;-15917.19;4998725;28;51158;-59
2023/02/14 08:19:00;;;;;;;;;87.00;67.25;;;;;-147.17;100.00;-15917.19;5015482;28;51256;-59
2023/02/14 08:21:26;;;;;;;;;86.50;69.50;;;;;-147.17;100.00;-15917.19;5020902;28;51007;-59
2023/02/14 08:23:52;;;;;;;;;87.50;68.25;;;;;-147.17;100.00;-15917.19;4999024;28;51228;-60
2023/02/14 08:26:17;;;;;;;;;79.50;61.50;;;;;-147.17;100.00;-15917.19;5018757;28;51330;-59
2023/02/14 08:28:43;;;;;;;;;82.00;63.33;;;;;-147.17;100.00;-15917.19;5017202;28;51231;-59
2023/02/14 08:31:10;;;;;;;;;81.25;64.50;;;;;-147.17;100.00;-15917.19;5001200;28;51044;-59
2023/02/14 08:33:38;;;;;;;;;83.00;65.00;;;;;-147.17;100.00;-15917.19;5013464;28;50899;-59
2023/02/14 08:36:03;;;;;;;;;74.25;58.50;;;;;-147.17;100.00;-15917.19;5003768;28;51280;-59
2023/02/14 08:38:29;;;;;;;;;75.25;60.50;;;;;-147.17;100.00;-15917.19;4994568;28;51230;-60
2023/02/14 08:41:00;;;;;;;;;77.00;61.00;;;;;-147.17;100.00;-15917.19;5022721;28;51023;-59
2023/02/14 08:43:25;;;;;;;;;76.25;60.00;;;;;-147.17;100.00;-15917.19;5021900;28;52056;-59
2023/02/14 08:45:53;;;;;;;;;74.75;60.00;;;;;-147.17;100.00;-15917.19;5024788;28;51129;-59
2023/02/14 08:48:21;;;;;;;;;73.75;58.25;;;;;-147.17;100.00;-15917.19;5023568;28;51315;-58
2023/02/14 08:50:47;;;;;;;;;77.00;60.50;;;;;-147.17;100.00;-15917.19;5014975;28;51055;-60
2023/02/14 08:53:12;;;;;;;;;75.25;59.75;;;;;-147.17;100.00;-15917.19;5022758;28;51010;-59
2023/02/14 08:55:39;;;;;;;;;72.50;59.50;;;;;-147.17;100.00;-15917.19;5024376;28;50963;-59
2023/02/14 08:58:05;;;;;;;;;63.50;51.00;;;;;-147.17;100.00;-15917.19;4993399;28;51237;-59
2023/02/14 09:00:31;;;;;;;;;74.00;58.00;;;;;-147.17;100.00;-15917.19;5024332;28;51573;-58
2023/02/14 09:02:57;;;;;;;;;68.75;53.50;;;;;-147.17;100.00;-15917.19;5016224;28;52338;-59
2023/02/14 09:05:23;;;;;;;;;68.50;54.50;;;;;-147.17;100.00;-15917.19;5028568;28;51216;-59
2023/02/14 09:07:49;;;;;;;;;67.25;52.75;;;;;-147.17;100.00;-15917.19;5018641;28;50971;-58
2023/02/14 09:10:17;;;;;;;;;69.00;55.25;;;;;-147.17;100.00;-15917.19;5023825;28;50994;-59
2023/02/14 09:12:43;;;;;;;;;72.50;57.00;;;;;-147.17;100.00;-15917.19;5022411;28;52317;-58
2023/02/14 09:15:09;;;;;;;;;70.25;56.75;;;;;-147.17;100.00;-15917.19;5023379;28;51003;-58
2023/02/14 09:17:36;;;;;;;;;69.25;55.00;;;;;-147.17;100.00;-15917.19;4990725;28;51367;-59
2023/02/14 09:20:02;;;;;;;;;75.75;59.00;;;;;-147.17;100.00;-15917.19;5024557;28;51110;-59
2023/02/14 09:22:27;;;;;;;;;69.50;55.25;;;;;-147.17;100.00;-15917.19;5023149;28;51747;-60
2023/02/14 09:24:53;;;;;;;;;74.25;59.00;;;;;-147.17;100.00;-15917.19;5021517;28;51188;-59
2023/02/14 09:27:18;;;;;;;;;69.50;55.50;;;;;-147.17;100.00;-15917.19;5022124;28;51432;-60
2023/02/14 09:29:43;;;;;;;;;74.50;61.75;;;;;-147.17;100.00;-15917.19;5024638;28;51410;-59
2023/02/14 09:32:09;;;;;;;;;68.75;55.25;;;;;-147.17;100.00;-15917.19;5021037;28;51973;-60
2023/02/14 09:34:38;;;;;;;;;69.00;56.00;;;;;-147.17;100.00;-15917.19;5019862;28;51184;-60
2023/02/14 09:39:47;;;;;;;;;67.25;53.75;;;;;-147.17;100.00;-15917.19;5026350;28;51460;-59
2023/02/14 09:42:37;;;;;;;;;73.00;58.25;;;;;-147.17;100.00;-15917.19;5018784;28;51276;-59
2023/02/14 09:45:25;;;;;;;;;66.25;52.75;;;;;-147.17;100.00;-15917.19;5020195;28;51076;-57
2023/02/14 09:48:06;;;;;;;;;70.00;55.00;;;;;-147.17;100.00;-15917.19;5021330;28;51546;-59
2023/02/14 09:50:34;;;;;;;;;69.75;57.00;;;;;-147.17;100.00;-15917.19;5025338;28;51388;-59
2023/02/14 09:53:22;;;;;;;;;72.50;58.50;;;;;-147.17;100.00;-15917.19;5026178;28;51912;-58
2023/02/14 09:56:01;;;;;;;;;68.00;54.50;;;;;-147.17;100.00;-15917.19;5018520;28;51220;-59
2023/02/14 09:58:39;;;;;;;;;66.25;54.25;;;;;-147.17;100.00;-15917.19;5025289;28;51034;-58
2023/02/14 10:01:19;;;;;;;;;70.75;55.75;;;;;-147.17;100.00;-15917.19;5024561;28;51320;-58
2023/02/14 10:04:23;;;;;;;;;71.00;57.75;;;;;-147.17;100.00;-15917.19;5024814;28;52372;-58
2023/02/14 10:06:54;;;;;;;;;69.25;54.50;;;;;-147.17;100.00;-15917.19;5016003;28;51066;-59
2023/02/14 10:09:29;;;;;;;;;70.75;56.50;;;;;-147.17;100.00;-15917.19;5025793;28;51384;-58
2023/02/14 10:11:57;;;;;;;;;69.00;52.75;;;;;-147.17;100.00;-15917.19;5020056;28;50970;-59
2023/02/14 10:14:28;;;;;;;;;68.50;53.75;;;;;-147.17;100.00;-15917.19;5015923;28;51101;-59
2023/02/14 10:17:06;;;;;;;;;72.50;57.75;;;;;-147.17;100.00;-15917.19;5019592;28;51209;-59
2023/02/14 10:19:54;;;;;;;;;69.75;55.50;;;;;-147.17;100.00;-15917.19;5013261;28;51402;-60
2023/02/14 10:22:25;;;;;;;;;71.25;56.75;;;;;-147.17;100.00;-15917.19;5023663;28;50865;-59
2023/02/14 10:25:26;;;;;;;;;73.25;59.00;;;;;-147.17;100.00;-15917.19;5011801;28;51968;-59
2023/02/14 10:27:57;;;;;;;;;62.50;49.75;;;;;-147.17;100.00;-15917.19;5012055;28;51209;-58
2023/02/14 10:30:22;;;;;;;;;78.25;64.25;;;;;-147.17;100.00;-15917.19;5016393;28;51184;-63
2023/02/14 10:33:12;;;;;;;;;74.00;60.50;;;;;-147.17;100.00;-15917.19;5008235;28;51029;-59
2023/02/14 10:35:54;;;;;;;;;74.00;60.75;;;;;-147.17;100.00;-15917.19;5023894;28;52058;-59
2023/02/14 10:38:58;;;;;;;;;76.00;66.00;;;;;-147.17;100.00;-15917.19;5019217;28;51190;-59
2023/02/14 10:41:47;;;;;;;;;75.50;58.50;;;;;-147.17;100.00;-15917.19;5001766;28;51274;-59
2023/02/14 10:44:22;;;;;;;;;67.25;52.50;;;;;-147.17;100.00;-15917.19;5026335;28;51198;-60
2023/02/14 10:46:53;;;;;;;;;74.00;58.75;;;;;-147.17;100.00;-15917.19;5024658;28;52358;-59
2023/02/14 10:49:26;;;;;;;;;68.75;55.50;;;;;-147.17;100.00;-15917.19;5018689;28;51114;-60
2023/02/14 10:52:11;;;;;;;;;76.25;60.50;;;;;-147.17;100.00;-15917.19;5023351;28;51252;-59
2023/02/14 10:54:41;;;;;;;;;75.50;59.75;;;;;-147.17;100.00;-15917.19;5018014;28;51251;-60
2023/02/14 10:57:22;;;;;;;;;21.50;13.75;;;;;-147.17;100.00;-15917.19;5019415;28;51586;-59
2023/02/14 11:00:30;;;;;;;;;67.00;55.00;;;;;-147.17;100.00;-15917.19;5017097;28;51129;-58
2023/02/14 11:02:58;;;;;;;;;74.75;59.00;;;;;-147.17;100.00;-15917.19;5015911;28;51095;-59
2023/02/14 11:05:35;;;;;;;;;75.50;63.50;;;;;-147.17;100.00;-15917.19;5018104;28;51588;-59
2023/02/14 11:08:01;;;;;;;;;74.00;60.75;;;;;-147.17;100.00;-15917.19;5017799;28;52172;-59
2023/02/14 11:10:32;;;;;;;;;72.00;59.25;;;;;-147.17;100.00;-15917.19;5017363;28;51090;-59
2023/02/14 11:12:59;;;;;;;;;72.75;61.00;;;;;-147.17;100.00;-15917.19;5013395;28;52412;-59
2023/02/14 11:15:38;;;;;;;;;71.00;55.00;;;;;-147.17;100.00;-15917.19;5000849;28;51289;-60